createdAt,value
2022-12-03T00:00:31.701Z,98926.28
2022-12-03T00:02:58.313Z,98922.22
2022-12-03T00:05:24.900Z,98922.69
2022-12-03T00:07:51.426Z,98919.44
2022-12-03T00:10:17.913Z,98922.94
2022-12-03T00:12:44.404Z,98921.31
2022-12-03T00:15:11.088Z,98907.44
2022-12-03T00:17:37.669Z,98927.59
2022-12-03T00:20:05.937Z,98918.06
2022-12-03T00:22:32.668Z,98915.06
2022-12-03T00:24:59.164Z,98916.63
2022-12-03T00:27:25.700Z,98915.50
2022-12-03T00:29:52.161Z,98909.28
2022-12-03T00:32:18.611Z,98910.13
2022-12-03T00:34:45.495Z,98909.28
2022-12-03T00:37:11.960Z,98890.78
2022-12-03T00:39:38.412Z,98898.44
2022-12-03T00:42:05.681Z,98900.28
2022-12-03T00:44:32.270Z,98896.69
2022-12-03T00:46:59.131Z,98899.13
2022-12-03T00:49:25.631Z,98890.91
2022-12-03T00:51:52.449Z,98884.13
2022-12-03T00:54:18.964Z,98881.88
2022-12-03T00:56:45.471Z,98890.34
2022-12-03T00:59:11.981Z,98887.88
2022-12-03T01:01:38.525Z,98888.19
2022-12-03T01:04:05.148Z,98883.56
2022-12-03T01:06:31.605Z,98874.78
2022-12-03T01:08:58.085Z,98874.56
2022-12-03T01:11:40.652Z,98870.50
2022-12-03T01:14:11.733Z,98880.31
2022-12-03T01:16:38.241Z,98869.94
2022-12-03T01:19:05.036Z,98870.19
2022-12-03T01:21:31.591Z,98875.66
2022-12-03T01:23:58.167Z,98878.59
2022-12-03T01:26:25.472Z,98878.84
2022-12-03T01:28:52.505Z,98878.03
2022-12-03T01:31:38.240Z,98874.00
2022-12-03T01:34:04.972Z,98878.28
2022-12-03T01:36:31.474Z,98879.09
2022-12-03T01:38:57.940Z,98879.09
2022-12-03T01:41:24.381Z,98885.38
2022-12-03T01:43:51.336Z,98882.38
2022-12-03T01:46:22.502Z,98874.53
2022-12-03T01:48:49.587Z,98882.13
2022-12-03T01:51:16.244Z,98885.41
2022-12-03T01:53:42.718Z,98891.94
2022-12-03T01:56:09.261Z,98874.75
2022-12-03T01:58:35.709Z,98877.75
2022-12-03T02:01:02.955Z,98885.88
2022-12-03T02:03:29.494Z,98884.50
2022-12-03T02:05:56.870Z,98895.97
2022-12-03T02:08:30.260Z,98886.09
2022-12-03T02:10:58.521Z,98889.56
2022-12-03T02:13:24.969Z,98885.00
2022-12-03T02:15:51.510Z,98891.06
2022-12-03T02:18:18.008Z,98889.16
2022-12-03T02:20:50.476Z,98893.78
2022-12-03T02:23:29.120Z,98891.03
2022-12-03T02:25:55.576Z,98889.88
2022-12-03T02:28:22.152Z,98887.69
2022-12-03T02:30:48.610Z,98887.94
2022-12-03T02:33:15.074Z,98882.19
2022-12-03T02:35:41.540Z,98886.53
2022-12-03T02:38:26.940Z,98884.97
2022-12-03T02:40:56.131Z,98880.28
2022-12-03T02:43:22.895Z,98878.31
2022-12-03T02:45:51.918Z,98880.84
2022-12-03T02:48:20.859Z,98883.50
2022-12-03T02:50:50.401Z,98881.06
2022-12-03T02:53:27.985Z,98879.19
2022-12-03T02:55:55.300Z,98883.00
2022-12-03T02:58:22.105Z,98885.78
2022-12-03T03:00:49.415Z,98878.75
2022-12-03T03:03:15.976Z,98884.72
2022-12-03T03:05:42.494Z,98881.41
2022-12-03T03:08:09.476Z,98883.00
2022-12-03T03:10:36.030Z,98878.59
2022-12-03T03:13:03.152Z,98880.03
2022-12-03T03:15:29.869Z,98882.94
2022-12-03T03:17:56.321Z,98887.38
2022-12-03T03:20:22.894Z,98885.47
2022-12-03T03:22:49.426Z,98882.47
2022-12-03T03:25:17.440Z,98882.19
2022-12-03T03:27:43.890Z,98876.22
2022-12-03T03:30:11.124Z,98881.66
2022-12-03T03:32:38.151Z,98881.34
2022-12-03T03:35:05.148Z,98879.09
2022-12-03T03:37:31.613Z,98876.06
2022-12-03T03:39:58.064Z,98868.78
2022-12-03T03:42:24.528Z,98873.13
2022-12-03T03:44:51.540Z,98877.25
2022-12-03T03:47:18.281Z,98870.16
2022-12-03T03:49:44.765Z,98869.91
2022-12-03T03:52:11.712Z,98870.97
2022-12-03T03:54:38.423Z,98866.94
2022-12-03T03:57:04.939Z,98869.66
2022-12-03T03:59:31.406Z,98867.69
2022-12-03T04:01:57.880Z,98861.94
2022-12-03T04:04:26.669Z,98860.88
2022-12-03T04:06:53.213Z,98865.22
2022-12-03T04:09:19.700Z,98856.56
2022-12-03T04:12:04.783Z,98853.78
2022-12-03T04:14:31.250Z,98855.09
2022-12-03T04:16:57.762Z,98855.66
2022-12-03T04:19:24.300Z,98859.41
2022-12-03T04:22:10.712Z,98863.84
2022-12-03T04:24:37.221Z,98855.69
2022-12-03T04:27:22.214Z,98861.94
2022-12-03T04:29:48.664Z,98857.81
2022-12-03T04:32:33.625Z,98854.28
2022-12-03T04:35:19.035Z,98859.94
2022-12-03T04:37:45.496Z,98854.03
2022-12-03T04:40:30.663Z,98857.31
2022-12-03T04:42:57.114Z,98848.53
2022-12-03T04:45:23.612Z,98854.22
2022-12-03T04:47:50.088Z,98855.13
2022-12-03T04:50:16.561Z,98846.69
2022-12-03T04:52:43.048Z,98854.03
2022-12-03T04:55:09.810Z,98853.47
2022-12-03T04:57:36.288Z,98855.38
2022-12-03T05:00:03.752Z,98849.91
2022-12-03T05:02:30.285Z,98848.00
2022-12-03T05:04:56.884Z,98843.97
2022-12-03T05:07:23.378Z,98834.94
2022-12-03T05:09:49.855Z,98838.78
2022-12-03T05:12:16.305Z,98847.50
2022-12-03T05:14:42.769Z,98832.19
2022-12-03T05:17:09.307Z,98833.59
2022-12-03T05:19:54.336Z,98839.84
2022-12-03T05:22:21.138Z,98833.84
2022-12-03T05:24:47.609Z,98839.03
2022-12-03T05:27:16.616Z,98824.66
2022-12-03T05:29:45.300Z,98829.53
2022-12-03T05:32:11.759Z,98832.00
2022-12-03T05:34:38.476Z,98824.91
2022-12-03T05:37:04.924Z,98819.97
2022-12-03T05:39:31.367Z,98821.84
2022-12-03T05:42:16.498Z,98822.72
2022-12-03T05:44:42.946Z,98823.53
2022-12-03T05:47:09.593Z,98822.72
2022-12-03T05:49:36.053Z,98826.25
2022-12-03T05:52:02.512Z,98825.69
2022-12-03T05:54:28.987Z,98826.81
2022-12-03T05:56:55.462Z,98826.81
2022-12-03T05:59:22.179Z,98831.16
2022-12-03T06:01:48.687Z,98828.97
2022-12-03T06:04:15.140Z,98831.19
2022-12-03T06:06:41.926Z,98831.16
2022-12-03T06:09:08.663Z,98834.16
2022-12-03T06:11:37.043Z,98833.91
2022-12-03T06:14:03.728Z,98827.63
2022-12-03T06:16:30.266Z,98838.25
2022-12-03T06:18:56.808Z,98822.97
2022-12-03T06:21:23.571Z,98821.63
2022-12-03T06:23:50.286Z,98828.16
2022-12-03T06:26:31.797Z,98831.69
2022-12-03T06:28:58.270Z,98838.25
2022-12-03T06:31:25.021Z,98832.56
2022-12-03T06:33:51.521Z,98829.28
2022-12-03T06:36:22.844Z,98824.66
2022-12-03T06:38:49.811Z,98830.63
2022-12-03T06:41:16.563Z,98831.78
2022-12-03T06:43:43.106Z,98846.69
2022-12-03T06:46:09.657Z,98846.13
2022-12-03T06:48:36.497Z,98846.41
2022-12-03T06:51:02.970Z,98844.47
2022-12-03T06:53:29.676Z,98846.94
2022-12-03T06:55:56.817Z,98848.59
2022-12-03T06:58:23.276Z,98857.03
2022-12-03T07:00:49.750Z,98855.50
2022-12-03T07:03:16.285Z,98861.22
2022-12-03T07:05:42.798Z,98853.03
2022-12-03T07:08:09.367Z,98851.63
2022-12-03T07:10:35.872Z,98858.63
2022-12-03T07:13:02.819Z,98865.75
2022-12-03T07:15:29.551Z,98868.97
2022-12-03T07:17:56.014Z,98873.84
2022-12-03T07:20:22.782Z,98873.56
2022-12-03T07:22:49.250Z,98876.56
2022-12-03T07:25:21.216Z,98883.91
2022-12-03T07:27:49.240Z,98889.09
2022-12-03T07:30:15.786Z,98880.91
2022-12-03T07:32:42.247Z,98889.16
2022-12-03T07:35:09.461Z,98881.81
2022-12-03T07:37:35.934Z,98879.91
2022-12-03T07:40:03.000Z,98879.91
2022-12-03T07:42:29.501Z,98880.75
2022-12-03T07:44:56.119Z,98874.28
2022-12-03T07:47:22.819Z,98876.47
2022-12-03T07:49:49.281Z,98871.25
2022-12-03T07:52:15.782Z,98862.53
2022-12-03T07:54:44.415Z,98863.09
2022-12-03T07:57:10.887Z,98858.41
2022-12-03T07:59:37.379Z,98865.56
2022-12-03T08:02:03.983Z,98856.06
2022-12-03T08:04:30.539Z,98851.97
2022-12-03T08:06:57.010Z,98850.63
2022-12-03T08:09:23.513Z,98847.66
2022-12-03T08:11:50.072Z,98842.72
2022-12-03T08:14:17.903Z,98845.44
2022-12-03T08:16:45.592Z,98844.13
2022-12-03T08:19:15.936Z,98828.66
2022-12-03T08:21:42.808Z,98818.03
2022-12-03T08:24:16.189Z,98818.59
2022-12-03T08:26:44.280Z,98824.03
2022-12-03T08:29:12.005Z,98819.63
2022-12-03T08:31:38.536Z,98813.41
2022-12-03T08:34:26.319Z,98811.81
2022-12-03T08:36:58.015Z,98805.00
2022-12-03T08:39:37.632Z,98802.34
2022-12-03T08:42:34.937Z,98797.94
2022-12-03T08:45:40.182Z,98807.25
2022-12-03T08:48:19.075Z,98799.09
2022-12-03T08:50:45.616Z,98800.69
2022-12-03T08:53:34.380Z,98795.66
2022-12-03T08:56:19.314Z,98794.09
2022-12-03T08:58:47.303Z,98807.75
2022-12-03T09:01:13.775Z,98801.25
2022-12-03T09:03:51.488Z,98805.91
2022-12-03T09:06:17.999Z,98806.75
2022-12-03T09:08:44.495Z,98795.91
2022-12-03T09:11:10.948Z,98804.06
2022-12-03T09:13:37.497Z,98794.00
2022-12-03T09:16:04.047Z,98801.81
2022-12-03T09:18:30.586Z,98812.22
2022-12-03T09:20:57.116Z,98803.34
2022-12-03T09:23:23.758Z,98803.66
2022-12-03T09:25:50.513Z,98799.88
2022-12-03T09:28:17.264Z,98803.66
2022-12-03T09:30:43.731Z,98798.50
2022-12-03T09:33:10.576Z,98797.44
2022-12-03T09:35:37.106Z,98800.47
2022-12-03T09:38:03.576Z,98798.06
2022-12-03T09:40:30.389Z,98785.84
2022-12-03T09:42:59.639Z,98776.28
2022-12-03T09:45:26.160Z,98780.38
2022-12-03T09:47:52.609Z,98771.66
2022-12-03T09:50:20.637Z,98771.41
2022-12-03T09:52:49.596Z,98771.09
2022-12-03T09:55:22.064Z,98768.59
2022-12-03T09:57:48.689Z,98763.66
2022-12-03T10:00:18.639Z,98773.50
2022-12-03T10:02:46.133Z,98760.97
2022-12-03T10:05:13.425Z,98759.97
2022-12-03T10:07:40.140Z,98756.69
2022-12-03T10:10:08.377Z,98758.34
2022-12-03T10:12:34.834Z,98747.47
2022-12-03T10:15:01.285Z,98741.53
2022-12-03T10:17:27.952Z,98738.25
2022-12-03T10:19:54.560Z,98737.09
2022-12-03T10:22:21.244Z,98733.84
2022-12-03T10:24:47.697Z,98734.41
2022-12-03T10:27:20.119Z,98738.50
2022-12-03T10:29:54.312Z,98728.09
2022-12-03T10:32:25.051Z,98728.91
2022-12-03T10:34:51.976Z,98733.25
2022-12-03T10:37:22.169Z,98732.66
2022-12-03T10:39:59.377Z,98727.19
2022-12-03T10:42:27.334Z,98729.09
2022-12-03T10:45:14.584Z,98726.41
2022-12-03T10:47:42.108Z,98722.13
2022-12-03T10:50:19.452Z,98715.88
2022-12-03T10:52:46.275Z,98720.78
2022-12-03T10:55:12.859Z,98721.06
2022-12-03T10:57:45.065Z,98713.16
2022-12-03T11:00:17.092Z,98716.13
2022-12-03T11:02:43.638Z,98706.38
2022-12-03T11:05:16.876Z,98713.13
2022-12-03T11:07:43.599Z,98703.63
2022-12-03T11:10:17.095Z,98706.59
2022-12-03T11:13:05.487Z,98707.16
2022-12-03T11:15:44.625Z,98706.63
2022-12-03T11:18:11.127Z,98696.25
2022-12-03T11:20:46.682Z,98695.69
2022-12-03T11:23:13.135Z,98696.25
2022-12-03T11:25:46.823Z,98684.56
2022-12-03T11:28:13.192Z,98687.84
2022-12-03T11:30:48.471Z,98680.44
2022-12-03T11:33:24.970Z,98678.28
2022-12-03T11:36:03.591Z,98677.75
2022-12-03T11:38:53.392Z,98672.06
2022-12-03T11:41:24.036Z,98668.41
2022-12-03T11:43:53.263Z,98668.22
2022-12-03T11:46:29.037Z,98656.50
2022-12-03T11:48:56.698Z,98664.16
2022-12-03T11:51:24.271Z,98652.72
2022-12-03T11:53:51.804Z,98658.19
2022-12-03T11:56:27.901Z,98655.44
2022-12-03T11:58:59.581Z,98640.75
2022-12-03T12:01:38.948Z,98653.22
2022-12-03T12:04:06.270Z,98655.66
2022-12-03T12:06:42.953Z,98659.72
2022-12-03T12:09:09.473Z,98657.56
2022-12-03T12:11:38.673Z,98654.06
2022-12-03T12:14:06.358Z,98649.09
2022-12-03T12:16:55.927Z,98648.53
2022-12-03T12:19:32.928Z,98650.19
2022-12-03T12:22:27.648Z,98643.41
2022-12-03T12:24:55.613Z,98638.22
2022-12-03T12:27:37.598Z,98644.22
2022-12-03T12:30:13.574Z,98623.28
2022-12-03T12:32:50.025Z,98628.16
2022-12-03T12:35:19.081Z,98626.00
2022-12-03T12:38:02.628Z,98626.53
2022-12-03T12:40:30.730Z,98620.81
2022-12-03T12:42:58.958Z,98630.31
2022-12-03T12:45:29.622Z,98633.03
2022-12-03T12:48:14.649Z,98627.03
2022-12-03T12:50:42.291Z,98635.22
2022-12-03T12:53:20.403Z,98628.16
2022-12-03T12:55:48.026Z,98631.44
2022-12-03T12:58:18.582Z,98630.09
2022-12-03T13:00:47.819Z,98644.25
2022-12-03T13:03:14.394Z,98634.19
2022-12-03T13:05:42.558Z,98627.13
2022-12-03T13:08:33.460Z,98627.88
2022-12-03T13:11:00.284Z,98623.81
2022-12-03T13:13:30.389Z,98617.06
2022-12-03T13:16:00.855Z,98615.41
2022-12-03T13:18:33.458Z,98611.56
2022-12-03T13:21:00.102Z,98609.09
2022-12-03T13:23:32.279Z,98609.13
2022-12-03T13:26:20.110Z,98612.66
2022-12-03T13:28:50.344Z,98605.63
2022-12-03T13:31:29.856Z,98602.31
2022-12-03T13:33:56.423Z,98598.28
2022-12-03T13:36:25.261Z,98602.63
2022-12-03T13:38:51.845Z,98603.72
2022-12-03T13:41:39.209Z,98603.13
2022-12-03T13:44:23.818Z,98604.78
2022-12-03T13:46:50.302Z,98594.69
2022-12-03T13:49:20.046Z,98597.69
2022-12-03T13:51:47.215Z,98588.69
2022-12-03T13:54:19.854Z,98590.34
2022-12-03T13:56:46.611Z,98584.59
2022-12-03T13:59:13.530Z,98578.34
2022-12-03T14:01:40.232Z,98576.19
2022-12-03T14:04:06.830Z,98577.53
2022-12-03T14:06:33.650Z,98573.19
2022-12-03T14:09:00.225Z,98578.09
2022-12-03T14:11:45.343Z,98573.16
2022-12-03T14:14:11.881Z,98582.41
2022-12-03T14:16:38.424Z,98574.78
2022-12-03T14:19:05.264Z,98577.00
2022-12-03T14:21:31.780Z,98576.72
2022-12-03T14:23:58.300Z,98568.84
2022-12-03T14:26:24.851Z,98577.25
2022-12-03T14:28:51.455Z,98566.38
2022-12-03T14:31:17.989Z,98572.38
2022-12-03T14:33:44.513Z,98574.28
2022-12-03T14:36:10.966Z,98571.56
2022-12-03T14:38:37.432Z,98578.94
2022-12-03T14:41:03.893Z,98566.66
2022-12-03T14:43:30.353Z,98574.81
2022-12-03T14:45:56.869Z,98578.63
2022-12-03T14:48:23.389Z,98571.56
2022-12-03T14:50:49.900Z,98579.72
2022-12-03T14:53:16.438Z,98569.34
2022-12-03T14:55:43.177Z,98566.34
2022-12-03T14:58:09.675Z,98572.00
2022-12-03T15:00:36.244Z,98570.41
2022-12-03T15:03:02.748Z,98575.31
2022-12-03T15:05:29.376Z,98572.63
2022-12-03T15:07:55.977Z,98571.78
2022-12-03T15:10:22.561Z,98579.94
2022-12-03T15:12:49.074Z,98577.47
2022-12-03T15:15:15.539Z,98573.97
2022-12-03T15:17:45.553Z,98578.03
2022-12-03T15:20:12.098Z,98577.50
2022-12-03T15:22:38.584Z,98584.59
2022-12-03T15:25:05.949Z,98569.63
2022-12-03T15:27:32.403Z,98569.38
2022-12-03T15:29:58.883Z,98565.56
2022-12-03T15:32:25.352Z,98578.09
2022-12-03T15:34:51.946Z,98573.72
2022-12-03T15:37:18.433Z,98573.69
2022-12-03T15:39:48.405Z,98569.91
2022-12-03T15:42:15.285Z,98569.34
2022-12-03T15:44:41.775Z,98569.63
2022-12-03T15:47:08.237Z,98567.47
2022-12-03T15:49:34.886Z,98558.97
2022-12-03T15:52:01.370Z,98557.09
2022-12-03T15:54:28.116Z,98569.34
2022-12-03T15:56:57.446Z,98569.06
2022-12-03T15:59:24.298Z,98555.75
2022-12-03T16:01:50.855Z,98562.56
2022-12-03T16:04:17.388Z,98564.72
2022-12-03T16:06:43.866Z,98556.81
2022-12-03T16:09:10.556Z,98560.09
2022-12-03T16:11:37.063Z,98562.28
2022-12-03T16:14:03.532Z,98561.16
2022-12-03T16:16:30.070Z,98551.06
2022-12-03T16:18:56.627Z,98555.72
2022-12-03T16:21:26.612Z,98552.19
2022-12-03T16:23:54.196Z,98562.75
2022-12-03T16:26:20.670Z,98566.66
2022-12-03T16:28:47.180Z,98564.16
2022-12-03T16:31:13.758Z,98564.13
2022-12-03T16:33:40.274Z,98570.19
2022-12-03T16:36:06.996Z,98565.56
2022-12-03T16:38:33.655Z,98563.66
2022-12-03T16:41:01.180Z,98542.97
2022-12-03T16:43:27.986Z,98562.25
2022-12-03T16:46:20.638Z,98559.03
2022-12-03T16:48:48.082Z,98565.31
2022-12-03T16:51:14.608Z,98567.72
2022-12-03T16:53:41.129Z,98571.28
2022-12-03T16:56:07.841Z,98571.00
2022-12-03T16:58:34.334Z,98561.72
2022-12-03T17:01:00.781Z,98562.28
2022-12-03T17:03:33.414Z,98560.09
2022-12-03T17:06:00.421Z,98563.91
2022-12-03T17:08:26.912Z,98551.38
2022-12-03T17:10:53.428Z,98569.63
2022-12-03T17:13:19.957Z,98554.69
2022-12-03T17:15:46.506Z,98557.34
2022-12-03T17:18:13.341Z,98555.47
2022-12-03T17:20:39.833Z,98553.56
2022-12-03T17:23:06.424Z,98553.56
2022-12-03T17:25:32.956Z,98558.47
2022-12-03T17:27:59.737Z,98553.56
2022-12-03T17:30:26.321Z,98553.00
2022-12-03T17:32:52.819Z,98553.00
2022-12-03T17:35:19.382Z,98553.28
2022-12-03T17:37:45.866Z,98552.44
2022-12-03T17:40:13.279Z,98552.47
2022-12-03T17:42:45.215Z,98552.19
2022-12-03T17:45:12.287Z,98557.59
2022-12-03T17:47:38.799Z,98545.63
2022-12-03T17:50:06.662Z,98547.00
2022-12-03T17:52:33.181Z,98553.28
2022-12-03T17:55:11.786Z,98547.56
2022-12-03T17:57:40.954Z,98557.34
2022-12-03T18:00:09.710Z,98555.47
2022-12-03T18:02:39.033Z,98557.38
2022-12-03T18:05:05.787Z,98559.56
2022-12-03T18:07:32.286Z,98553.31
2022-12-03T18:09:58.910Z,98553.84
2022-12-03T18:12:25.432Z,98553.00
2022-12-03T18:14:54.866Z,98562.53
2022-12-03T18:17:21.541Z,98544.81
2022-12-03T18:19:48.100Z,98550.56
2022-12-03T18:22:14.601Z,98562.75
2022-12-03T18:24:41.092Z,98555.16
2022-12-03T18:27:07.557Z,98555.41
2022-12-03T18:29:34.026Z,98549.16
2022-12-03T18:32:00.822Z,98550.03
2022-12-03T18:34:27.430Z,98550.00
2022-12-03T18:36:54.165Z,98547.53
2022-12-03T18:39:27.611Z,98548.34
2022-12-03T18:41:54.140Z,98542.91
2022-12-03T18:44:23.802Z,98538.84
2022-12-03T18:46:54.464Z,98545.09
2022-12-03T18:49:24.941Z,98539.38
2022-12-03T18:51:58.735Z,98547.53
2022-12-03T18:54:33.116Z,98539.91
2022-12-03T18:56:59.620Z,98545.09
2022-12-03T18:59:29.308Z,98547.53
2022-12-03T19:01:58.946Z,98542.63
2022-12-03T19:04:28.094Z,98542.38
2022-12-03T19:06:54.649Z,98542.94
2022-12-03T19:09:23.194Z,98543.19
2022-12-03T19:11:49.833Z,98545.91
2022-12-03T19:14:19.296Z,98542.38
2022-12-03T19:16:46.312Z,98541.56
2022-12-03T19:19:12.983Z,98540.47
2022-12-03T19:21:48.369Z,98544.81
2022-12-03T19:24:30.095Z,98541.03
2022-12-03T19:26:56.847Z,98533.13
2022-12-03T19:29:23.396Z,98536.63
2022-12-03T19:31:53.286Z,98544.00
2022-12-03T19:34:20.175Z,98535.84
2022-12-03T19:36:49.249Z,98544.31
2022-12-03T19:39:15.775Z,98547.84
2022-12-03T19:41:43.974Z,98537.75
2022-12-03T19:44:18.532Z,98536.09
2022-12-03T19:46:45.051Z,98539.09
2022-12-03T19:49:11.762Z,98542.63
2022-12-03T19:51:38.288Z,98548.63
2022-12-03T19:54:10.592Z,98543.75
2022-12-03T19:56:40.325Z,98549.19
2022-12-03T19:59:07.973Z,98561.16
2022-12-03T20:01:45.921Z,98542.69
2022-12-03T20:04:15.753Z,98549.75
2022-12-03T20:06:42.397Z,98552.19
2022-12-03T20:09:13.586Z,98558.69
2022-12-03T20:11:40.689Z,98555.97
2022-12-03T20:14:12.737Z,98557.41
2022-12-03T20:16:39.519Z,98565.00
2022-12-03T20:19:07.186Z,98562.00
2022-12-03T20:21:34.797Z,98554.91
2022-12-03T20:24:01.805Z,98549.50
2022-12-03T20:26:28.528Z,98554.66
2022-12-03T20:28:57.969Z,98558.47
2022-12-03T20:31:26.744Z,98557.91
2022-12-03T20:33:55.385Z,98558.16
2022-12-03T20:36:24.646Z,98562.56
2022-12-03T20:38:55.185Z,98563.31
2022-12-03T20:41:21.877Z,98563.34
2022-12-03T20:43:52.071Z,98559.53
2022-12-03T20:46:29.296Z,98559.56
2022-12-03T20:48:56.248Z,98558.47
2022-12-03T20:51:24.325Z,98547.03
2022-12-03T20:53:51.052Z,98554.13
2022-12-03T20:56:23.982Z,98546.50
2022-12-03T20:58:50.740Z,98545.41
2022-12-03T21:01:22.294Z,98542.16
2022-12-03T21:03:51.971Z,98545.66
2022-12-03T21:06:18.644Z,98550.56
2022-12-03T21:08:45.667Z,98555.19
2022-12-03T21:11:20.695Z,98545.97
2022-12-03T21:13:56.828Z,98550.31
2022-12-03T21:17:06.673Z,98555.50
2022-12-03T21:19:23.791Z,98551.91
2022-12-03T21:21:53.302Z,98550.59
2022-12-03T21:24:20.012Z,98553.03
2022-12-03T21:26:50.373Z,98545.41
2022-12-03T21:29:17.156Z,98552.50
2022-12-03T21:31:49.583Z,98547.31
2022-12-03T21:34:19.244Z,98551.66
2022-12-03T21:36:55.148Z,98546.16
2022-12-03T21:39:24.582Z,98552.19
2022-12-03T21:42:18.744Z,98547.56
2022-12-03T21:44:46.488Z,98550.59
2022-12-03T21:47:14.203Z,98556.84
2022-12-03T21:49:44.039Z,98556.31
2022-12-03T21:52:11.226Z,98541.88
2022-12-03T21:54:43.527Z,98543.78
2022-12-03T21:57:10.081Z,98545.94
2022-12-03T21:59:42.425Z,98544.59
2022-12-03T22:02:10.141Z,98527.72
2022-12-03T22:04:37.165Z,98539.41
2022-12-03T22:07:04.289Z,98542.69
2022-12-03T22:09:34.197Z,98534.25
2022-12-03T22:12:01.218Z,98541.34
2022-12-03T22:14:28.485Z,98536.72
2022-12-03T22:16:55.351Z,98519.31
2022-12-03T22:19:23.339Z,98528.56
2022-12-03T22:21:50.132Z,98526.38
2022-12-03T22:24:18.207Z,98516.31
2022-12-03T22:26:44.902Z,98522.28
2022-12-03T22:29:11.560Z,98518.75
2022-12-03T22:31:38.194Z,98516.28
2022-12-03T22:34:04.662Z,98519.56
2022-12-03T22:36:31.265Z,98527.47
2022-12-03T22:38:57.721Z,98521.44
2022-12-03T22:41:24.204Z,98524.72
2022-12-03T22:43:50.669Z,98523.09
2022-12-03T22:46:17.317Z,98526.91
2022-12-03T22:48:44.812Z,98518.47
2022-12-03T22:51:19.067Z,98519.84
2022-12-03T22:53:45.763Z,98516.03
2022-12-03T22:56:12.433Z,98518.22
2022-12-03T22:58:39.285Z,98507.34
2022-12-03T23:01:06.320Z,98510.84
2022-12-03T23:03:32.981Z,98504.31
2022-12-03T23:05:59.468Z,98496.97
2022-12-03T23:08:26.190Z,98499.69
2022-12-03T23:10:52.732Z,98502.41
2022-12-03T23:13:19.386Z,98494.28
2022-12-03T23:15:46.998Z,98498.34
2022-12-03T23:18:14.671Z,98496.44
2022-12-03T23:20:49.066Z,98494.84
2022-12-03T23:23:15.691Z,98489.13
2022-12-03T23:25:42.228Z,98483.38
2022-12-03T23:28:08.891Z,98480.41
2022-12-03T23:30:36.553Z,98485.56
2022-12-03T23:33:04.009Z,98487.75
2022-12-03T23:35:30.568Z,98492.13
2022-12-03T23:37:57.050Z,98486.09
2022-12-03T23:40:23.842Z,98484.50
2022-12-03T23:42:50.318Z,98487.47
2022-12-03T23:45:16.806Z,98482.84
2022-12-03T23:47:43.271Z,98477.13
2022-12-03T23:50:11.080Z,98476.03
2022-12-03T23:52:37.557Z,98468.97
2022-12-03T23:55:07.776Z,98477.38
2022-12-03T23:57:34.382Z,98476.59
